Time;durP1;ratioP1;P1;durP2;ratioP2;P2;SDS_P1;SDS_P2;PMS_P1;PMS_P2;Temp;Humidity;BMP_temperature;BMP_pressure;BME280_temperature;BME280_humidity;BME280_pressure;Samples;Min_cycle;Max_cycle;Signal;HPM_P1;HPM_P2
2023/01/19 00:00:26;;;;;;;;;;;;;;;1.73;100.00;99611.91;4921979;29;20649;-78
2023/01/19 00:02:51;;;;;;;;;;;;;;;1.78;100.00;99609.16;4920917;29;20025;-77
2023/01/19 00:05:17;;;;;;;;;;;;;;;1.83;100.00;99606.41;4927931;29;20623;-77
2023/01/19 00:07:42;;;;;;;;;;;;;;;1.86;100.00;99607.19;4921167;28;19950;-77
2023/01/19 00:10:08;;;;;;;;;;;;;;;1.89;100.00;99611.44;4917114;28;19931;-78
2023/01/19 00:12:34;;;;;;;;;;;;;;;1.89;100.00;99598.41;4922142;28;19941;-78
2023/01/19 00:14:59;;;;;;;;;;;;;;;1.88;100.00;99605.41;4921909;28;19957;-78
2023/01/19 00:17:25;;;;;;;;;;;;;;;1.88;100.00;99605.41;4920952;28;19931;-77
2023/01/19 00:19:50;;;;;;;;;;;;;;;1.88;100.00;99605.41;4934575;28;19989;-77
2023/01/19 00:22:15;;;;;;;;;;;;;;;1.90;100.00;99610.56;4921477;28;19935;-78
2023/01/19 00:24:41;;;;;;;;;;;;;;;1.92;100.00;99616.59;4919901;28;20165;-77
2023/01/19 00:27:06;;;;;;;;;;;;;;;1.94;100.00;99613.94;4921543;28;20074;-77
2023/01/19 00:29:35;;;;;;;;;;;;;;;1.92;100.00;99606.16;4933360;28;19930;-77
2023/01/19 00:32:01;;;;;;;;;;;;;;;1.92;100.00;99605.28;4920058;28;20025;-77
2023/01/19 00:34:33;;;;;;;;;;;;;;;1.90;100.00;99603.59;4920221;28;20461;-77
2023/01/19 00:37:01;;;;;;;;;;;;;;;1.90;100.00;99602.72;4941341;28;19937;-77
2023/01/19 00:39:26;;;;;;;;;;;;;;;1.88;100.00;99609.75;4932259;28;20032;-77
2023/01/19 00:44:37;;;;;;;;;;;;;;;1.90;100.00;99615.78;4946311;28;20453;-78
2023/01/19 00:47:04;;;;;;;;;;;;;;;1.90;100.00;99618.38;4932375;28;19934;-77
2023/01/19 00:49:30;;;;;;;;;;;;;;;1.92;100.00;99615.72;4927985;28;20458;-77
2023/01/19 00:51:55;;;;;;;;;;;;;;;1.93;100.00;99612.22;4922682;28;19931;-77
2023/01/19 00:54:20;;;;;;;;;;;;;;;1.94;100.00;99614.78;4933513;28;20113;-77
2023/01/19 00:56:46;;;;;;;;;;;;;;;1.95;100.00;99621.72;4927455;28;19958;-77
2023/01/19 00:59:14;;;;;;;;;;;;;;;1.97;100.00;99614.69;4931425;28;20505;-77
2023/01/19 01:01:40;;;;;;;;;;;;;;;1.96;100.00;99607.75;4929236;28;19934;-77
2023/01/19 01:04:05;;;;;;;;;;;;;;;1.96;100.00;99618.22;4932675;28;19942;-77
2023/01/19 01:06:30;;;;;;;;;;;;;;;1.95;100.00;99619.09;4932350;28;19954;-77
2023/01/19 01:08:56;;;;;;;;;;;;;;;1.95;100.00;99621.72;4925062;28;19938;-77
2023/01/19 01:11:21;;;;;;;;;;;;;;;1.97;100.00;99626.91;4928358;28;20424;-77
2023/01/19 01:13:47;;;;;;;;;;;;;;;1.95;100.00;99626.94;4944103;28;19957;-77
2023/01/19 01:16:14;;;;;;;;;;;;;;;1.96;100.00;99622.59;4929682;28;19941;-77
2023/01/19 01:18:39;;;;;;;;;;;;;;;1.95;100.00;99621.72;4930827;28;19926;-77
2023/01/19 01:21:06;;;;;;;;;;;;;;;1.95;100.00;99624.34;4929931;28;19938;-77
2023/01/19 01:23:32;;;;;;;;;;;;;;;1.94;100.00;99630.47;4944719;28;20157;-77
2023/01/19 01:25:58;;;;;;;;;;;;;;;1.93;100.00;99628.75;4920050;28;19927;-77
2023/01/19 01:28:23;;;;;;;;;;;;;;;1.93;100.00;99628.75;4945453;28;20424;-77
2023/01/19 01:30:52;;;;;;;;;;;;;;;1.94;100.00;99627.84;4929771;28;20445;-77
2023/01/19 01:33:17;;;;;;;;;;;;;;;1.94;100.00;99637.41;4930593;28;19953;-78
2023/01/19 01:35:43;;;;;;;;;;;;;;;1.92;100.00;99637.50;4948308;28;19966;-77
2023/01/19 01:38:08;;;;;;;;;;;;;;;1.91;100.00;99633.16;4954549;28;19926;-77
2023/01/19 01:40:33;;;;;;;;;;;;;;;1.92;100.00;99634.88;4938295;28;19926;-77
2023/01/19 01:42:59;;;;;;;;;;;;;;;1.94;100.00;99638.28;4951865;28;20115;-77
2023/01/19 01:45:27;;;;;;;;;;;;;;;1.95;100.00;99641.78;4923128;28;20139;-77
2023/01/19 01:47:53;;;;;;;;;;;;;;;1.96;100.00;99644.31;4943381;28;20953;-77
2023/01/19 01:50:18;;;;;;;;;;;;;;;1.98;100.00;99658.19;4943041;28;19926;-78
2023/01/19 01:52:56;;;;;;;;;;;;;;;1.99;100.00;99652.06;4940784;28;20044;-77
2023/01/19 01:55:22;;;;;;;;;;;;;;;2.01;100.00;99658.09;4941530;28;20052;-77
2023/01/19 01:57:51;;;;;;;;;;;;;;;2.03;100.00;99660.66;4942042;28;19975;-78
2023/01/19 02:00:16;;;;;;;;;;;;;;;2.05;100.00;99661.47;4941424;28;19926;-78
2023/01/19 02:02:53;;;;;;;;;;;;;;;2.06;100.00;99644.06;4937466;28;20353;-78
2023/01/19 02:05:29;;;;;;;;;;;;;;;2.06;100.00;99657.13;4939906;28;20013;-78
2023/01/19 02:13:45;;;;;;;;;;;;;;;2.09;100.00;99660.50;4937296;28;19976;-78
2023/01/19 02:16:12;;;;;;;;;;;;;;;2.09;100.00;99654.41;4934881;28;20389;-78
2023/01/19 02:18:37;;;;;;;;;;;;;;;2.11;100.00;99647.38;4921424;28;20008;-77
2023/01/19 02:21:06;;;;;;;;;;;;;;;2.12;100.00;99649.09;4935987;28;19931;-78
2023/01/19 02:23:31;;;;;;;;;;;;;;;2.09;100.00;99644.81;4939024;28;20365;-77
2023/01/19 02:25:57;;;;;;;;;;;;;;;2.09;100.00;99650.06;4938701;28;19937;-77
2023/01/19 02:28:25;;;;;;;;;;;;;;;2.06;100.00;99642.28;4935554;28;19933;-78
2023/01/19 02:30:50;;;;;;;;;;;;;;;2.03;100.00;99645.84;4937409;28;19941;-77
2023/01/19 02:33:15;;;;;;;;;;;;;;;1.99;100.00;99654.69;4938280;28;19922;-77
2023/01/19 02:35:41;;;;;;;;;;;;;;;1.98;100.00;99663.41;4938656;28;19930;-77
2023/01/19 02:38:06;;;;;;;;;;;;;;;1.98;100.00;99668.63;4936343;28;20783;-77
2023/01/19 02:40:32;;;;;;;;;;;;;;;1.98;100.00;99671.25;4938172;28;19930;-77
2023/01/19 02:42:59;;;;;;;;;;;;;;;2.00;100.00;99672.06;4936488;28;19934;-78
2023/01/19 02:45:27;;;;;;;;;;;;;;;2.05;100.00;99671.91;4930667;28;19930;-78
2023/01/19 02:47:53;;;;;;;;;;;;;;;2.13;100.00;99680.38;4945004;28;20408;-77
2023/01/19 02:50:28;;;;;;;;;;;;;;;2.19;100.00;99681.97;4948798;28;19980;-77
2023/01/19 02:52:54;;;;;;;;;;;;;;;2.26;100.00;99682.63;4948844;28;19941;-77
2023/01/19 02:55:19;;;;;;;;;;;;;;;2.29;100.00;99691.22;4948472;28;20430;-78
2023/01/19 02:57:51;;;;;;;;;;;;;;;2.34;100.00;99705.94;4946734;28;20062;-78
2023/01/19 03:00:16;;;;;;;;;;;;;;;2.31;100.00;99699.88;4943314;28;19998;-78
2023/01/19 03:02:45;;;;;;;;;;;;;;;2.25;100.00;99681.78;4936382;28;21319;-78
2023/01/19 03:05:20;;;;;;;;;;;;;;;2.25;100.00;99686.16;4937301;28;19941;-78
2023/01/19 03:07:46;;;;;;;;;;;;;;;2.27;100.00;99700.00;4935948;28;19938;-78
2023/01/19 03:10:31;;;;;;;;;;;;;;;2.28;100.00;99702.59;4935589;28;20390;-78
2023/01/19 03:13:01;;;;;;;;;;;;;;;2.31;100.00;99706.88;4937711;28;19961;-78
2023/01/19 03:15:30;;;;;;;;;;;;;;;2.31;100.00;99712.09;4936961;28;19934;-78
2023/01/19 03:17:59;;;;;;;;;;;;;;;2.34;100.00;99713.75;4937247;28;19933;-78
2023/01/19 03:20:27;;;;;;;;;;;;;;;2.36;100.00;99696.28;4938065;28;20017;-78
2023/01/19 03:22:54;;;;;;;;;;;;;;;2.33;100.00;99691.16;4938461;28;21760;-78
2023/01/19 03:25:20;;;;;;;;;;;;;;;2.31;100.00;99697.25;4936738;28;19937;-78
2023/01/19 03:27:46;;;;;;;;;;;;;;;2.30;100.00;99698.16;4937976;28;19930;-78
2023/01/19 03:30:17;;;;;;;;;;;;;;;2.28;100.00;99697.38;4920222;28;19930;-78
2023/01/19 03:32:49;;;;;;;;;;;;;;;2.27;100.00;99716.56;4938260;28;20385;-78
2023/01/19 03:35:15;;;;;;;;;;;;;;;2.24;100.00;99706.19;4941832;28;20424;-78
2023/01/19 03:37:41;;;;;;;;;;;;;;;2.22;100.00;99702.75;4938165;28;19930;-78
2023/01/19 03:40:07;;;;;;;;;;;;;;;2.20;100.00;99704.56;4941126;28;19926;-78
2023/01/19 03:42:32;;;;;;;;;;;;;;;2.19;100.00;99702.88;4940707;28;19937;-78
2023/01/19 03:44:58;;;;;;;;;;;;;;;2.19;100.00;99702.88;4942045;28;20728;-78
2023/01/19 03:47:24;;;;;;;;;;;;;;;2.18;100.00;99703.75;4940032;28;20548;-78
2023/01/19 03:49:49;;;;;;;;;;;;;;;2.17;100.00;99704.66;4938634;28;19936;-78
2023/01/19 03:52:15;;;;;;;;;;;;;;;2.18;100.00;99703.75;4941129;28;21418;-77
2023/01/19 03:54:40;;;;;;;;;;;;;;;2.22;100.00;99702.75;4940978;28;19934;-79
2023/01/19 03:57:06;;;;;;;;;;;;;;;2.25;100.00;99710.53;4922414;28;19930;-78
2023/01/19 03:59:31;;;;;;;;;;;;;;;2.33;100.00;99714.66;4937583;28;20744;-78
2023/01/19 04:01:57;;;;;;;;;;;;;;;2.38;100.00;99728.44;4946052;28;19934;-78
2023/01/19 04:04:24;;;;;;;;;;;;;;;2.42;100.00;99735.28;4946572;28;19930;-78
2023/01/19 04:06:49;;;;;;;;;;;;;;;2.46;100.00;99741.28;4950611;28;20345;-78
2023/01/19 04:09:15;;;;;;;;;;;;;;;2.50;100.00;99742.91;4952049;28;19926;-78
2023/01/19 04:11:40;;;;;;;;;;;;;;;2.51;100.00;99758.53;4950953;28;19972;-78
2023/01/19 04:14:06;;;;;;;;;;;;;;;2.53;100.00;99756.75;4951439;28;19930;-78
2023/01/19 04:16:31;;;;;;;;;;;;;;;2.56;100.00;99763.63;4951330;28;19930;-78
2023/01/19 04:18:57;;;;;;;;;;;;;;;2.60;100.00;99767.00;4942420;28;19930;-78
2023/01/19 04:21:22;;;;;;;;;;;;;;;2.61;100.00;99779.19;4937449;28;19937;-78
2023/01/19 04:23:48;;;;;;;;;;;;;;;2.63;100.00;99783.47;4938081;28;19926;-77
2023/01/19 04:26:14;;;;;;;;;;;;;;;2.62;100.00;99799.19;4936822;28;19930;-77
2023/01/19 04:28:39;;;;;;;;;;;;;;;2.62;100.00;99799.19;4919259;28;19930;-77
2023/01/19 04:31:05;;;;;;;;;;;;;;;2.62;100.00;99801.78;4936784;28;19930;-77
2023/01/19 04:33:31;;;;;;;;;;;;;;;2.61;100.00;99800.09;4919882;28;20021;-77
2023/01/19 04:35:56;;;;;;;;;;;;;;;2.58;100.00;99814.09;4935652;28;20420;-77
2023/01/19 04:38:22;;;;;;;;;;;;;;;2.55;100.00;99806.31;4923915;28;20429;-77
2023/01/19 04:40:48;;;;;;;;;;;;;;;2.51;100.00;99812.56;4938830;28;19926;-77
2023/01/19 04:43:14;;;;;;;;;;;;;;;2.45;100.00;99810.97;4937525;28;20499;-77
2023/01/19 04:45:39;;;;;;;;;;;;;;;2.41;100.00;99818.03;4940560;28;19926;-77
2023/01/19 04:48:05;;;;;;;;;;;;;;;2.37;100.00;99816.41;4921925;28;19946;-77
2023/01/19 04:50:30;;;;;;;;;;;;;;;2.34;100.00;99819.09;4939771;28;19985;-77
2023/01/19 04:52:56;;;;;;;;;;;;;;;2.33;100.00;99832.22;4938756;28;19926;-76
2023/01/19 04:55:21;;;;;;;;;;;;;;;2.29;100.00;99829.69;4942317;28;20014;-77
2023/01/19 04:57:47;;;;;;;;;;;;;;;2.25;100.00;99848.09;4944112;28;19937;-77
2023/01/19 05:00:12;;;;;;;;;;;;;;;2.18;100.00;99844.78;4944610;28;19937;-76
2023/01/19 05:02:38;;;;;;;;;;;;;;;2.14;100.00;99858.84;4943622;28;19926;-77
2023/01/19 05:05:03;;;;;;;;;;;;;;;2.09;100.00;99856.34;4938001;28;19934;-76
2023/01/19 05:07:29;;;;;;;;;;;;;;;2.07;100.00;99852.88;4940611;28;19968;-78
2023/01/19 05:09:54;;;;;;;;;;;;;;;2.06;100.00;99860.78;4937151;28;20483;-77
2023/01/19 05:12:20;;;;;;;;;;;;;;;2.02;100.00;99868.69;4921445;28;20041;-77
2023/01/19 05:14:45;;;;;;;;;;;;;;;2.00;100.00;99873.09;4941311;28;19930;-77
2023/01/19 05:17:11;;;;;;;;;;;;;;;1.96;100.00;99874.06;4941737;28;20149;-77
2023/01/19 05:19:36;;;;;;;;;;;;;;;1.94;100.00;99868.03;4944598;28;20170;-77
2023/01/19 05:22:02;;;;;;;;;;;;;;;1.90;100.00;99874.22;4926333;28;19949;-77
2023/01/19 05:24:27;;;;;;;;;;;;;;;1.87;100.00;99876.91;4947794;28;19933;-77
2023/01/19 05:26:53;;;;;;;;;;;;;;;1.82;100.00;99886.59;4933951;28;20464;-77
2023/01/19 05:29:18;;;;;;;;;;;;;;;1.78;100.00;99885.81;4952251;28;20308;-77
2023/01/19 05:31:43;;;;;;;;;;;;;;;1.73;100.00;99891.16;4937209;28;20044;-77
2023/01/19 05:34:09;;;;;;;;;;;;;;;1.72;100.00;99894.66;4952256;28;20009;-77
2023/01/19 05:36:35;;;;;;;;;;;;;;;1.72;100.00;99907.72;4949466;28;19930;-77
2023/01/19 05:39:00;;;;;;;;;;;;;;;1.74;100.00;99905.91;4937049;28;19933;-77
2023/01/19 05:41:26;;;;;;;;;;;;;;;1.77;100.00;99910.22;4949086;28;19934;-77
2023/01/19 05:43:51;;;;;;;;;;;;;;;1.78;100.00;99914.53;4940063;28;19930;-77
2023/01/19 05:46:17;;;;;;;;;;;;;;;1.84;100.00;99916.13;4950359;28;20630;-77
2023/01/19 05:48:42;;;;;;;;;;;;;;;1.89;100.00;99916.88;4932989;28;19930;-76
2023/01/19 05:51:07;;;;;;;;;;;;;;;1.94;100.00;99920.25;4950262;28;21501;-76
2023/01/19 05:53:33;;;;;;;;;;;;;;;1.98;100.00;99921.91;4948259;28;19944;-76
2023/01/19 05:55:59;;;;;;;;;;;;;;;2.01;100.00;99923.56;4943612;28;19965;-76
2023/01/19 05:58:25;;;;;;;;;;;;;;;2.05;100.00;99927.81;4948730;28;20029;-76
2023/01/19 06:00:50;;;;;;;;;;;;;;;2.07;100.00;99922.56;4935265;28;19938;-76
2023/01/19 06:03:16;;;;;;;;;;;;;;;2.07;100.00;99933.00;4947271;28;20305;-76
2023/01/19 06:05:41;;;;;;;;;;;;;;;2.05;100.00;99938.25;4948552;28;19934;-76
2023/01/19 06:08:07;;;;;;;;;;;;;;;2.02;100.00;99943.56;4948384;28;19940;-76
2023/01/19 06:10:32;;;;;;;;;;;;;;;2.00;100.00;99940.97;4945793;28;19965;-78
2023/01/19 06:12:58;;;;;;;;;;;;;;;2.02;100.00;99949.63;4939994;28;21017;-77
2023/01/19 06:15:23;;;;;;;;;;;;;;;2.05;100.00;99950.47;4920862;28;20314;-76
2023/01/19 06:17:49;;;;;;;;;;;;;;;2.07;100.00;99954.72;4928529;28;20182;-75
2023/01/19 06:20:14;;;;;;;;;;;;;;;2.09;100.00;99962.53;4934409;28;20369;-75
2023/01/19 06:22:40;;;;;;;;;;;;;;;2.12;100.00;99963.31;4936014;28;20033;-76
2023/01/19 06:25:05;;;;;;;;;;;;;;;2.16;100.00;99969.31;4935436;28;19965;-75
2023/01/19 06:27:31;;;;;;;;;;;;;;;2.19;100.00;99969.28;4937129;28;20309;-76
2023/01/19 06:29:56;;;;;;;;;;;;;;;2.20;100.00;99972.72;4933214;28;20468;-77
2023/01/19 06:32:21;;;;;;;;;;;;;;;2.20;100.00;99962.28;4933166;28;20449;-76
2023/01/19 06:34:47;;;;;;;;;;;;;;;2.17;100.00;99976.25;4919139;28;19930;-76
2023/01/19 06:37:14;;;;;;;;;;;;;;;2.14;100.00;99965.91;4935904;28;20025;-75
2023/01/19 06:39:41;;;;;;;;;;;;;;;2.12;100.00;99967.72;4933526;28;20836;-76
2023/01/19 06:42:06;;;;;;;;;;;;;;;2.07;100.00;99965.19;4916813;28;19934;-75
2023/01/19 06:44:32;;;;;;;;;;;;;;;2.03;100.00;99980.06;4935319;28;19988;-76
2023/01/19 06:46:57;;;;;;;;;;;;;;;1.99;100.00;99981.06;4932794;28;19992;-75
2023/01/19 06:49:23;;;;;;;;;;;;;;;1.96;100.00;99988.09;4932688;28;21282;-77
2023/01/19 06:51:48;;;;;;;;;;;;;;;1.93;100.00;99985.53;4934220;28;20133;-77
2023/01/19 06:54:13;;;;;;;;;;;;;;;1.89;100.00;99993.47;4932473;28;20130;-76
2023/01/19 06:56:39;;;;;;;;;;;;;;;1.85;100.00;99994.41;4931030;28;19976;-76
2023/01/19 06:59:04;;;;;;;;;;;;;;;1.82;100.00;100006.69;4934837;28;19927;-76
2023/01/19 07:01:30;;;;;;;;;;;;;;;1.77;100.00;100009.41;4935691;28;19930;-76
2023/01/19 07:03:56;;;;;;;;;;;;;;;1.72;100.00;100017.34;4920181;28;19934;-76
2023/01/19 07:06:21;;;;;;;;;;;;;;;1.70;100.00;100018.25;4937087;28;19941;-76
2023/01/19 07:08:46;;;;;;;;;;;;;;;1.68;100.00;100026.13;4934655;28;19945;-75
2023/01/19 07:11:12;;;;;;;;;;;;;;;1.68;100.00;100039.16;4916947;28;19934;-76
2023/01/19 07:13:38;;;;;;;;;;;;;;;1.67;100.00;100041.78;4917908;28;19937;-76
2023/01/19 07:16:04;;;;;;;;;;;;;;;1.65;100.00;100041.84;4931927;28;20049;-75
2023/01/19 07:18:30;;;;;;;;;;;;;;;1.66;100.00;100043.56;4933481;28;19933;-75
2023/01/19 07:20:56;;;;;;;;;;;;;;;1.65;100.00;100054.03;4934237;28;20065;-76
2023/01/19 07:23:21;;;;;;;;;;;;;;;1.62;100.00;100063.66;4936049;28;19930;-76
2023/01/19 07:25:47;;;;;;;;;;;;;;;1.62;100.00;100063.66;4934671;28;19930;-76
2023/01/19 07:28:14;;;;;;;;;;;;;;;1.67;100.00;100071.38;4910264;28;19937;-77
2023/01/19 07:30:40;;;;;;;;;;;;;;;1.74;100.00;100072.97;4925660;28;19945;-76
2023/01/19 07:33:12;;;;;;;;;;;;;;;1.80;100.00;100076.34;4928779;28;19946;-76
2023/01/19 07:35:37;;;;;;;;;;;;;;;1.85;100.00;100079.72;4930460;28;21173;-77
2023/01/19 07:38:03;;;;;;;;;;;;;;;1.88;100.00;100090.09;4930678;28;19981;-76
2023/01/19 07:40:28;;;;;;;;;;;;;;;1.90;100.00;100088.28;4932080;28;19930;-76
2023/01/19 07:42:54;;;;;;;;;;;;;;;1.91;100.00;100092.66;4926624;28;21177;-76
2023/01/19 07:45:20;;;;;;;;;;;;;;;1.92;100.00;100096.97;4926753;28;19966;-76
2023/01/19 07:47:47;;;;;;;;;;;;;;;1.92;100.00;100099.56;4915316;28;19972;-76
2023/01/19 07:50:13;;;;;;;;;;;;;;;1.93;100.00;100100.41;4924196;28;20015;-76
2023/01/19 07:52:39;;;;;;;;;;;;;;;1.93;100.00;100103.03;4922502;28;19922;-76
2023/01/19 07:55:05;;;;;;;;;;;;;;;1.95;100.00;100106.50;4919664;28;20569;-76
2023/01/19 07:57:30;;;;;;;;;;;;;;;1.95;100.00;100109.94;4902849;28;20108;-76
2023/01/19 07:59:56;;;;;;;;;;;;;;;1.98;100.00;100109.03;4927078;28;19937;-76
2023/01/19 08:02:22;;;;;;;;;;;;;;;1.97;100.00;100115.97;4930927;28;19960;-76
2023/01/19 08:04:47;;;;;;;;;;;;;;;1.97;100.00;100123.81;4934373;28;20433;-76
2023/01/19 08:07:13;;;;;;;;;;;;;;;1.97;100.00;100136.03;4930479;28;20389;-75
2023/01/19 08:09:38;;;;;;;;;;;;;;;1.95;100.00;100133.44;4933602;28;20020;-76
2023/01/19 08:12:04;;;;;;;;;;;;;;;1.92;100.00;100132.66;4928603;28;20028;-75
2023/01/19 08:14:29;;;;;;;;;;;;;;;1.89;100.00;100138.78;4963226;28;19933;-75
2023/01/19 08:16:58;;;;;;;;;;;;;;;1.85;100.00;100137.16;4963249;28;20424;-75
2023/01/19 08:19:23;;;;;;;;;;;;;;;1.79;100.00;100148.56;4954285;28;19926;-75
2023/01/19 08:21:51;;;;;;;;;;;;;;;1.75;100.00;100157.34;4966322;28;20368;-75
2023/01/19 08:24:17;;;;;;;;;;;;;;;1.70;100.00;100157.41;4949403;28;19986;-75
2023/01/19 08:26:43;;;;;;;;;;;;;;;1.65;100.00;100164.50;4942259;28;19926;-75
2023/01/19 08:29:08;;;;;;;;;;;;;;;1.63;100.00;100168.88;4950254;28;19937;-75
2023/01/19 08:31:34;;;;;;;;;;;;;;;1.61;100.00;100165.44;4948454;28;19933;-76
2023/01/19 08:33:59;;;;;;;;;;;;;;;1.60;100.00;100182.00;4952682;28;19938;-76
2023/01/19 08:36:25;;;;;;;;;;;;;;;1.59;100.00;100177.66;4946529;28;19941;-76
2023/01/19 08:38:50;;;;;;;;;;;;;;;1.58;100.00;100182.00;4928033;28;19932;-76
2023/01/19 08:41:16;;;;;;;;;;;;;;;1.55;100.00;100187.31;4946755;28;19930;-76
2023/01/19 08:43:41;;;;;;;;;;;;;;;1.53;100.00;100190.81;4944756;28;20421;-76
2023/01/19 08:46:07;;;;;;;;;;;;;;;1.50;100.00;100191.75;4924332;28;19926;-76
2023/01/19 08:48:32;;;;;;;;;;;;;;;1.45;100.00;100191.81;4946031;28;19941;-75
2023/01/19 08:50:59;;;;;;;;;;;;;;;1.42;100.00;100199.69;4949430;28;20600;-75
2023/01/19 08:53:24;;;;;;;;;;;;;;;1.41;100.00;100195.38;4949408;28;19941;-76
2023/01/19 08:55:54;;;;;;;;;;;;;;;1.41;100.00;100203.19;4947693;28;19934;-76
2023/01/19 08:58:19;;;;;;;;;;;;;;;1.42;100.00;100204.06;4951294;28;19927;-76
2023/01/19 09:00:45;;;;;;;;;;;;;;;1.41;100.00;100205.81;4947503;28;20404;-76
2023/01/19 09:03:11;;;;;;;;;;;;;;;1.41;100.00;100203.19;4950751;28;20384;-76
2023/01/19 09:05:37;;;;;;;;;;;;;;;1.40;100.00;100206.69;4944544;28;19973;-76
2023/01/19 09:08:12;;;;;;;;;;;;;;;1.41;100.00;100208.41;4936721;28;19930;-77
2023/01/19 09:10:38;;;;;;;;;;;;;;;1.43;100.00;100214.47;4914067;28;19937;-77
2023/01/19 09:13:04;;;;;;;;;;;;;;;1.45;100.00;100217.03;4945463;28;19938;-76
2023/01/19 09:15:32;;;;;;;;;;;;;;;1.46;100.00;100222.25;4947123;28;19930;-76
2023/01/19 09:17:58;;;;;;;;;;;;;;;1.48;100.00;100222.22;4946342;28;19973;-77
2023/01/19 09:20:23;;;;;;;;;;;;;;;1.51;100.00;100229.13;4945593;28;19932;-76
2023/01/19 09:22:49;;;;;;;;;;;;;;;1.52;100.00;100230.84;4943013;28;19926;-77
2023/01/19 09:25:14;;;;;;;;;;;;;;;1.53;100.00;100224.75;4945326;28;19946;-77
2023/01/19 09:27:40;;;;;;;;;;;;;;;1.54;100.00;100229.94;4949693;28;19930;-77
2023/01/19 09:30:06;;;;;;;;;;;;;;;1.56;100.00;100235.13;4942418;28;20032;-77
2023/01/19 09:32:31;;;;;;;;;;;;;;;1.57;100.00;100237.69;4940707;28;19930;-77
2023/01/19 09:34:56;;;;;;;;;;;;;;;1.58;100.00;100239.41;4940213;28;20064;-77
2023/01/19 09:37:22;;;;;;;;;;;;;;;1.62;100.00;100242.84;4944319;28;19930;-77
2023/01/19 09:39:50;;;;;;;;;;;;;;;1.65;100.00;100242.81;4940479;28;20086;-77
2023/01/19 09:42:19;;;;;;;;;;;;;;;1.69;100.00;100247.06;4938031;28;19938;-77
2023/01/19 09:44:45;;;;;;;;;;;;;;;1.72;100.00;100252.25;4943091;28;20324;-77
2023/01/19 09:47:14;;;;;;;;;;;;;;;1.74;100.00;100258.28;4936128;28;19922;-77
2023/01/19 09:49:40;;;;;;;;;;;;;;;1.75;100.00;100254.78;4922653;28;20325;-77
2023/01/19 09:52:12;;;;;;;;;;;;;;;1.79;100.00;100254.75;4921658;28;19930;-77
2023/01/19 09:54:39;;;;;;;;;;;;;;;1.81;100.00;100260.78;4938929;28;19933;-77
2023/01/19 09:57:12;;;;;;;;;;;;;;;1.83;100.00;100261.59;4937868;28;19937;-78
2023/01/19 09:59:37;;;;;;;;;;;;;;;1.84;100.00;100260.72;4938004;28;19930;-77
2023/01/19 10:02:22;;;;;;;;;;;;;;;1.85;100.00;100265.06;4939914;28;20053;-77
2023/01/19 10:05:01;;;;;;;;;;;;;;;1.86;100.00;100265.00;4941098;28;19934;-77
2023/01/19 10:07:47;;;;;;;;;;;;;;;1.88;100.00;100263.25;4941680;28;20662;-76
2023/01/19 10:10:25;;;;;;;;;;;;;;;1.93;100.00;100268.38;4940112;28;19934;-76
2023/01/19 10:13:13;;;;;;;;;;;;;;;1.95;100.00;100279.66;4939478;28;19996;-76
2023/01/19 10:15:41;;;;;;;;;;;;;;;1.99;100.00;100278.72;4920607;28;19925;-76
2023/01/19 10:18:22;;;;;;;;;;;;;;;2.03;100.00;100275.16;4939258;28;20390;-77
2023/01/19 10:20:49;;;;;;;;;;;;;;;2.10;100.00;100282.88;4923514;28;19929;-76
2023/01/19 10:23:28;;;;;;;;;;;;;;;2.13;100.00;100285.44;4941128;28;19970;-77
2023/01/19 10:25:54;;;;;;;;;;;;;;;2.20;100.00;100294.88;4939534;28;20163;-76
2023/01/19 10:28:21;;;;;;;;;;;;;;;2.26;100.00;100289.53;4939606;28;20333;-77
2023/01/19 10:30:46;;;;;;;;;;;;;;;2.35;100.00;100291.09;4940027;28;20021;-77
2023/01/19 10:33:12;;;;;;;;;;;;;;;2.39;100.00;100297.97;4926566;28;19976;-77
2023/01/19 10:35:37;;;;;;;;;;;;;;;2.39;100.00;100287.50;4937467;28;19930;-77
2023/01/19 10:38:03;;;;;;;;;;;;;;;2.40;100.00;100296.22;4938540;28;19938;-77
2023/01/19 10:40:48;;;;;;;;;;;;;;;2.41;100.00;100292.72;4938915;28;20386;-76
2023/01/19 10:43:32;;;;;;;;;;;;;;;2.42;100.00;100289.22;4940300;28;19930;-76
2023/01/19 10:45:57;;;;;;;;;;;;;;;2.43;100.00;100294.41;4939016;28;19926;-77
2023/01/19 10:48:23;;;;;;;;;;;;;;;2.44;100.00;100295.25;4934678;28;20024;-76
2023/01/19 10:50:48;;;;;;;;;;;;;;;2.42;100.00;100290.09;4924386;28;19930;-76
2023/01/19 10:53:19;;;;;;;;;;;;;;;2.42;100.00;100289.22;4940389;28;19930;-76
2023/01/19 10:55:44;;;;;;;;;;;;;;;2.47;100.00;100295.22;4942049;28;20483;-76
2023/01/19 10:58:26;;;;;;;;;;;;;;;2.51;100.00;100298.63;4938683;28;19942;-76
2023/01/19 11:00:52;;;;;;;;;;;;;;;2.55;100.00;100300.25;4937245;28;19941;-76
2023/01/19 11:03:24;;;;;;;;;;;;;;;2.58;100.00;100300.22;4942029;28;19930;-77
2023/01/19 11:05:50;;;;;;;;;;;;;;;2.57;100.00;100298.50;4947693;28;19985;-76
2023/01/19 11:08:23;;;;;;;;;;;;;;;2.57;100.00;100301.94;4942394;28;19933;-77
2023/01/19 11:10:52;;;;;;;;;;;;;;;2.58;100.00;100306.28;4945374;28;19926;-78
2023/01/19 11:13:18;;;;;;;;;;;;;;;2.63;100.00;100300.09;4944982;28;19965;-79
2023/01/19 11:15:43;;;;;;;;;;;;;;;2.63;100.00;100300.97;4944795;28;19930;-78
2023/01/19 11:18:27;;;;;;;;;;;;;;;2.66;100.00;100307.91;4947188;28;20024;-78
2023/01/19 11:20:54;;;;;;;;;;;;;;;2.74;100.00;100307.72;4947344;28;19933;-79
2023/01/19 11:23:26;;;;;;;;;;;;;;;2.77;100.00;100305.06;4948039;28;20000;-79
2023/01/19 11:25:52;;;;;;;;;;;;;;;2.81;100.00;100307.56;4946927;28;19996;-80
2023/01/19 11:28:26;;;;;;;;;;;;;;;2.89;100.00;100317.84;4941481;28;20415;-78
2023/01/19 11:30:53;;;;;;;;;;;;;;;2.98;100.00;100311.56;4943131;28;20034;-77
2023/01/19 11:33:25;;;;;;;;;;;;;;;3.04;100.00;100319.25;4945982;28;19962;-78
2023/01/19 11:35:55;;;;;;;;;;;;;;;3.11;100.00;100305.16;4945566;28;19980;-78
2023/01/19 11:38:22;;;;;;;;;;;;;;;3.18;100.00;100315.47;4941284;28;19937;-78
2023/01/19 11:40:53;;;;;;;;;;;;;;;3.23;100.00;100313.63;4940496;28;20346;-78
2023/01/19 11:43:19;;;;;;;;;;;;;;;3.29;100.00;100316.09;4950279;28;19985;-78
2023/01/19 11:45:45;;;;;;;;;;;;;;;3.32;100.00;100318.63;4940234;28;20160;-78
2023/01/19 11:48:13;;;;;;;;;;;;;;;3.37;100.00;100321.13;4945433;28;21505;-77
2023/01/19 11:50:41;;;;;;;;;;;;;;;3.38;100.00;100321.09;4941460;28;19934;-78
2023/01/19 11:53:10;;;;;;;;;;;;;;;3.42;100.00;100321.03;4945900;28;20325;-78
2023/01/19 11:55:49;;;;;;;;;;;;;;;3.45;100.00;100324.44;4944657;28;19926;-78
2023/01/19 11:58:15;;;;;;;;;;;;;;;3.46;100.00;100335.75;4947988;28;20392;-77
2023/01/19 12:00:49;;;;;;;;;;;;;;;3.45;100.00;100334.03;4914188;28;20297;-77
2023/01/19 12:03:25;;;;;;;;;;;;;;;3.39;100.00;100322.81;4941676;28;19938;-77
2023/01/19 12:05:52;;;;;;;;;;;;;;;3.34;100.00;100332.56;4909861;28;19926;-77
2023/01/19 12:08:19;;;;;;;;;;;;;;;3.32;100.00;100328.25;4943883;28;19978;-77
2023/01/19 12:10:45;;;;;;;;;;;;;;;3.29;100.00;100337.03;4925927;28;19930;-77
2023/01/19 12:13:23;;;;;;;;;;;;;;;3.23;100.00;100332.78;4927524;28;20329;-77
2023/01/19 12:15:50;;;;;;;;;;;;;;;3.21;100.00;100336.34;4939337;28;19985;-77
2023/01/19 12:18:20;;;;;;;;;;;;;;;3.17;100.00;100332.06;4924090;28;19938;-78
2023/01/19 12:20:46;;;;;;;;;;;;;;;3.15;100.00;100341.72;4927179;28;19937;-77
2023/01/19 12:23:18;;;;;;;;;;;;;;;3.11;100.00;100344.38;4926609;28;19978;-77
2023/01/19 12:26:07;;;;;;;;;;;;;;;3.07;100.00;100340.13;4925782;28;20495;-76
2023/01/19 12:28:35;;;;;;;;;;;;;;;3.03;100.00;100343.69;4944227;28;20156;-76
2023/01/19 12:31:01;;;;;;;;;;;;;;;2.99;100.00;100342.03;4921109;28;19927;-78
2023/01/19 12:33:34;;;;;;;;;;;;;;;2.97;100.00;100343.84;4930762;28;21887;-78
2023/01/19 12:36:02;;;;;;;;;;;;;;;2.94;100.00;100349.16;4918481;28;19927;-77
2023/01/19 12:38:47;;;;;;;;;;;;;;;2.91;100.00;100351.81;4917940;28;20456;-77
2023/01/19 12:41:31;;;;;;;;;;;;;;;2.87;100.00;100353.63;4931168;28;19930;-77
2023/01/19 12:44:10;;;;;;;;;;;;;;;2.81;100.00;100349.41;4914731;28;19973;-77
2023/01/19 12:46:48;;;;;;;;;;;;;;;2.72;100.00;100355.69;4929282;28;19930;-77
2023/01/19 12:49:20;;;;;;;;;;;;;;;2.65;100.00;100358.44;4926089;28;20064;-77
2023/01/19 12:51:46;;;;;;;;;;;;;;;2.62;100.00;100355.91;4916068;28;20006;-77